createdAt,value
2023-05-08T00:01:13.201Z,50.40
2023-05-08T00:03:41.838Z,50.65
2023-05-08T00:06:09.506Z,50.82
2023-05-08T00:08:36.665Z,50.30
2023-05-08T00:11:03.992Z,50.18
2023-05-08T00:13:31.331Z,50.30
2023-05-08T00:15:58.467Z,50.40
2023-05-08T00:18:25.671Z,49.97
2023-05-08T00:20:54.553Z,49.92
2023-05-08T00:23:21.787Z,49.69
2023-05-08T00:25:48.882Z,49.46
2023-05-08T00:28:16.177Z,48.99
2023-05-08T00:30:43.346Z,49.28
2023-05-08T00:33:10.443Z,49.54
2023-05-08T00:35:37.667Z,49.37
2023-05-08T00:38:06.226Z,49.46
2023-05-08T00:40:33.424Z,49.60
2023-05-08T00:43:00.894Z,49.19
2023-05-08T00:45:34.765Z,49.12
2023-05-08T00:48:02.305Z,48.98
2023-05-08T00:50:30.206Z,48.33
2023-05-08T00:53:00.625Z,48.93
2023-05-08T00:55:30.543Z,48.60
2023-05-08T00:57:58.032Z,49.06
2023-05-08T01:00:25.604Z,48.67
2023-05-08T01:02:53.329Z,48.71
2023-05-08T01:05:20.647Z,48.64
2023-05-08T01:07:48.356Z,49.24
2023-05-08T01:10:15.724Z,49.63
2023-05-08T01:12:58.557Z,49.32
2023-05-08T01:15:33.288Z,49.83
2023-05-08T01:18:14.190Z,49.34
2023-05-08T01:20:49.246Z,50.14
2023-05-08T01:24:13.048Z,49.87
2023-05-08T01:27:17.061Z,49.94
2023-05-08T01:30:16.697Z,50.10
2023-05-08T01:32:55.698Z,50.17
2023-05-08T01:35:30.314Z,50.10
2023-05-08T01:38:06.626Z,50.17
2023-05-08T01:40:45.008Z,50.00
2023-05-08T01:43:23.227Z,49.78
2023-05-08T01:45:55.084Z,50.06
2023-05-08T01:48:30.640Z,50.17
2023-05-08T01:51:05.855Z,49.86
2023-05-08T01:53:38.954Z,50.34
2023-05-08T01:56:12.274Z,50.13
2023-05-08T01:58:42.979Z,50.20
2023-05-08T02:01:12.836Z,49.80
2023-05-08T02:03:44.628Z,50.12
2023-05-08T02:06:17.807Z,49.77
2023-05-08T02:08:47.429Z,50.17
2023-05-08T02:11:17.437Z,50.26
2023-05-08T02:13:49.993Z,50.19
2023-05-08T02:16:19.185Z,50.00
2023-05-08T02:18:54.127Z,50.42
2023-05-08T02:21:23.643Z,50.01
2023-05-08T02:23:54.511Z,50.14
2023-05-08T02:26:24.326Z,50.34
2023-05-08T02:28:54.428Z,50.27
2023-05-08T02:31:23.120Z,50.79
2023-05-08T02:33:53.649Z,50.96
2023-05-08T02:36:23.328Z,50.51
2023-05-08T02:38:54.374Z,50.05
2023-05-08T02:41:26.231Z,50.18
2023-05-08T02:43:54.309Z,50.69
2023-05-08T02:46:30.056Z,50.42
2023-05-08T02:49:03.783Z,50.33
2023-05-08T02:51:49.360Z,49.98
2023-05-08T02:54:24.010Z,50.32
2023-05-08T02:57:00.044Z,50.07
2023-05-08T02:59:35.861Z,50.30
2023-05-08T03:02:10.974Z,50.49
2023-05-08T03:04:47.522Z,50.00
2023-05-08T03:07:16.212Z,49.99
2023-05-08T03:09:49.092Z,49.90
2023-05-08T03:12:22.364Z,50.10
2023-05-08T03:17:26.807Z,50.34
2023-05-08T03:20:00.779Z,50.74
2023-05-08T03:22:32.641Z,50.71
2023-05-08T03:25:02.902Z,50.61
2023-05-08T03:27:32.007Z,50.79
2023-05-08T03:30:01.994Z,50.76
2023-05-08T03:32:33.177Z,50.11
2023-05-08T03:35:03.768Z,50.22
2023-05-08T03:37:31.049Z,50.24
2023-05-08T03:42:26.942Z,50.34
2023-05-08T03:44:54.635Z,50.49
2023-05-08T03:47:22.690Z,50.27
2023-05-08T03:49:50.795Z,49.96
2023-05-08T03:52:19.318Z,50.27
2023-05-08T03:54:46.464Z,50.54
2023-05-08T03:57:13.635Z,49.79
2023-05-08T03:59:48.485Z,49.93
2023-05-08T04:02:25.584Z,49.68
2023-05-08T04:05:00.864Z,50.19
2023-05-08T04:07:35.953Z,50.31
2023-05-08T04:10:12.192Z,50.52
2023-05-08T04:12:50.993Z,50.45
2023-05-08T04:15:22.933Z,50.44
2023-05-08T04:17:56.166Z,50.44
2023-05-08T04:20:27.870Z,50.81
2023-05-08T04:22:59.378Z,50.89
2023-05-08T04:25:27.243Z,50.49
2023-05-08T04:27:55.389Z,50.57
2023-05-08T04:30:22.848Z,50.55
2023-05-08T04:32:51.619Z,50.10
2023-05-08T04:35:18.828Z,50.00
2023-05-08T04:37:47.376Z,50.33
2023-05-08T04:40:16.168Z,50.45
2023-05-08T04:42:43.283Z,50.33
2023-05-08T04:45:11.674Z,50.52
2023-05-08T04:47:39.431Z,50.62
2023-05-08T04:50:07.519Z,50.72
2023-05-08T04:52:34.757Z,50.69
2023-05-08T04:55:02.138Z,50.42
2023-05-08T04:57:30.684Z,52.08
2023-05-08T04:59:57.946Z,50.95
2023-05-08T05:02:26.438Z,51.12
2023-05-08T05:04:53.628Z,51.67
2023-05-08T05:07:20.976Z,51.21
2023-05-08T05:09:48.080Z,50.93
2023-05-08T05:12:15.225Z,51.24
2023-05-08T05:14:43.714Z,50.84
2023-05-08T05:17:10.980Z,51.00
2023-05-08T05:19:38.048Z,50.62
2023-05-08T05:22:05.243Z,50.55
2023-05-08T05:24:32.641Z,51.68
2023-05-08T05:27:00.203Z,50.17
2023-05-08T05:29:27.702Z,52.08
2023-05-08T05:31:56.400Z,51.04
2023-05-08T05:34:23.702Z,48.95
2023-05-08T05:36:50.817Z,49.78
2023-05-08T05:39:18.101Z,49.41
2023-05-08T05:41:45.217Z,49.15
2023-05-08T05:44:12.358Z,49.46
2023-05-08T05:46:40.155Z,49.74
2023-05-08T05:49:09.622Z,50.20
2023-05-08T05:51:36.910Z,49.92
2023-05-08T05:54:04.476Z,50.50
2023-05-08T05:56:31.553Z,50.19
2023-05-08T05:58:58.675Z,50.02
2023-05-08T06:01:25.800Z,50.40
2023-05-08T06:03:53.041Z,50.39
2023-05-08T06:06:21.815Z,50.85
2023-05-08T06:08:48.915Z,50.73
2023-05-08T06:11:16.037Z,50.75
2023-05-08T06:13:43.249Z,51.15
2023-05-08T06:16:10.501Z,49.75
2023-05-08T06:18:37.636Z,52.56
2023-05-08T06:21:05.096Z,51.36
2023-05-08T06:23:33.892Z,49.84
2023-05-08T06:26:01.096Z,48.60
2023-05-08T06:28:28.178Z,47.32
2023-05-08T06:30:55.368Z,47.05
2023-05-08T06:33:24.660Z,47.78
2023-05-08T06:35:53.515Z,48.18
2023-05-08T06:38:20.779Z,49.06
2023-05-08T06:40:49.346Z,49.60
2023-05-08T06:43:16.680Z,48.26
2023-05-08T06:45:44.879Z,48.60
2023-05-08T06:48:12.024Z,47.35
2023-05-08T06:50:39.329Z,48.24
2023-05-08T06:53:06.967Z,48.30
2023-05-08T06:55:34.452Z,48.88
2023-05-08T06:58:03.466Z,47.46
2023-05-08T07:00:30.646Z,47.81
2023-05-08T07:02:57.729Z,48.49
2023-05-08T07:05:25.122Z,52.02
2023-05-08T07:07:52.425Z,48.04
2023-05-08T07:10:19.865Z,46.91
2023-05-08T07:12:47.141Z,47.23
2023-05-08T07:15:25.328Z,46.86
2023-05-08T07:17:53.610Z,45.73
2023-05-08T07:20:21.066Z,45.75
2023-05-08T07:22:48.110Z,45.01
2023-05-08T07:25:15.491Z,43.36
2023-05-08T07:27:42.863Z,44.56
2023-05-08T07:30:10.986Z,44.87
2023-05-08T07:32:41.060Z,46.17
2023-05-08T07:35:10.754Z,46.48
2023-05-08T07:37:38.983Z,46.52
2023-05-08T07:40:07.657Z,47.10
2023-05-08T07:42:39.935Z,45.12
2023-05-08T07:45:09.033Z,45.50
2023-05-08T07:47:36.144Z,44.80
2023-05-08T07:50:05.977Z,45.82
2023-05-08T07:52:33.256Z,45.06
2023-05-08T07:55:00.500Z,46.61
2023-05-08T07:57:27.587Z,46.59
2023-05-08T07:59:54.608Z,46.72
2023-05-08T08:02:21.771Z,45.35
2023-05-08T08:04:48.941Z,45.85
2023-05-08T08:07:17.477Z,46.29
2023-05-08T08:09:44.641Z,46.25
2023-05-08T08:12:11.858Z,44.10
2023-05-08T08:14:39.110Z,44.79
2023-05-08T08:17:06.496Z,42.72
2023-05-08T08:19:33.695Z,41.88
2023-05-08T08:22:00.837Z,41.46
2023-05-08T08:24:29.553Z,44.09
2023-05-08T08:26:58.104Z,43.16
2023-05-08T08:29:25.380Z,44.75
2023-05-08T08:31:52.743Z,43.78
2023-05-08T08:34:19.940Z,44.38
2023-05-08T08:36:47.076Z,43.48
2023-05-08T08:39:15.408Z,44.91
2023-05-08T08:41:44.169Z,44.71
2023-05-08T08:44:11.440Z,43.07
2023-05-08T08:46:45.476Z,42.30
2023-05-08T08:49:18.025Z,45.11
2023-05-08T08:51:51.763Z,42.31
2023-05-08T08:54:23.452Z,42.38
2023-05-08T08:56:55.585Z,42.43
2023-05-08T08:59:27.690Z,42.68
2023-05-08T09:01:58.972Z,41.91
2023-05-08T09:04:26.180Z,42.36
2023-05-08T09:06:54.089Z,42.41
2023-05-08T09:09:21.672Z,43.95
2023-05-08T09:11:48.960Z,43.52
2023-05-08T09:14:17.824Z,43.86
2023-05-08T09:16:45.496Z,44.50
2023-05-08T09:19:14.824Z,44.64
2023-05-08T09:21:42.088Z,44.35
2023-05-08T09:24:09.259Z,45.25
2023-05-08T09:26:38.522Z,44.61
2023-05-08T09:29:10.579Z,44.93
2023-05-08T09:31:41.279Z,44.34
2023-05-08T09:34:08.863Z,45.89
2023-05-08T09:36:36.359Z,45.18
2023-05-08T09:39:04.007Z,46.32
2023-05-08T09:41:31.121Z,43.70
2023-05-08T09:44:02.798Z,44.46
2023-05-08T09:46:30.424Z,43.77
2023-05-08T09:49:00.569Z,43.26
2023-05-08T09:51:31.154Z,41.87
2023-05-08T09:53:59.908Z,41.30
2023-05-08T09:56:44.664Z,41.12
2023-05-08T09:59:24.727Z,41.46
2023-05-08T10:01:52.357Z,41.83
2023-05-08T10:04:32.241Z,42.15
2023-05-08T10:06:59.692Z,42.66
2023-05-08T10:09:32.816Z,42.42
2023-05-08T10:12:08.288Z,42.94
2023-05-08T10:14:35.515Z,41.60
2023-05-08T10:17:10.386Z,41.66
2023-05-08T10:19:46.266Z,41.03
2023-05-08T10:22:18.504Z,42.39
2023-05-08T10:24:50.047Z,42.02
2023-05-08T10:27:20.547Z,40.01
2023-05-08T10:29:53.536Z,41.92
2023-05-08T10:32:23.056Z,40.15
2023-05-08T10:34:56.402Z,40.54
2023-05-08T10:37:23.709Z,42.81
2023-05-08T10:39:53.970Z,41.05
2023-05-08T10:42:22.535Z,41.72
2023-05-08T10:44:52.098Z,42.12
2023-05-08T10:47:30.017Z,41.95
2023-05-08T10:50:06.345Z,40.50
2023-05-08T10:52:43.677Z,42.56
2023-05-08T10:55:22.249Z,41.76
2023-05-08T10:58:12.232Z,40.88
2023-05-08T11:01:14.576Z,40.40
2023-05-08T11:03:43.980Z,42.33
2023-05-08T11:06:13.611Z,42.00
2023-05-08T11:08:48.959Z,40.33
2023-05-08T11:11:25.426Z,39.85
2023-05-08T11:13:56.167Z,40.75
2023-05-08T11:17:00.513Z,40.62
2023-05-08T11:19:29.231Z,40.43
2023-05-08T11:22:17.311Z,41.66
2023-05-08T11:24:50.830Z,40.83
2023-05-08T11:27:18.132Z,43.84
2023-05-08T11:29:45.486Z,42.83
2023-05-08T11:32:12.797Z,41.85
2023-05-08T11:34:47.035Z,43.19
2023-05-08T11:37:20.755Z,41.28
2023-05-08T11:39:48.489Z,41.60
2023-05-08T11:42:34.571Z,42.53
2023-05-08T11:45:06.842Z,41.42
2023-05-08T11:47:38.651Z,40.81
2023-05-08T11:50:08.183Z,41.63
2023-05-08T11:52:38.325Z,42.17
2023-05-08T11:55:08.125Z,39.98
2023-05-08T11:57:35.849Z,37.95
2023-05-08T12:00:06.666Z,38.36
2023-05-08T12:02:38.671Z,38.88
2023-05-08T12:05:09.670Z,38.57
2023-05-08T12:07:45.089Z,38.09
2023-05-08T12:10:12.890Z,38.31
2023-05-08T12:12:42.071Z,39.49
2023-05-08T12:15:11.709Z,40.65
2023-05-08T12:17:39.213Z,39.08
2023-05-08T12:20:15.236Z,39.82
2023-05-08T12:22:50.586Z,41.45
2023-05-08T12:25:18.793Z,40.96
2023-05-08T12:27:46.493Z,37.15
2023-05-08T12:30:15.926Z,37.40
2023-05-08T12:32:44.598Z,37.65
2023-05-08T12:35:13.590Z,38.09
2023-05-08T12:37:41.056Z,40.04
2023-05-08T12:40:26.367Z,39.79
2023-05-08T12:42:54.168Z,39.85
2023-05-08T12:45:24.185Z,39.90
2023-05-08T12:47:53.203Z,40.90
2023-05-08T12:50:22.008Z,40.89
2023-05-08T12:52:51.619Z,41.56
2023-05-08T12:55:25.901Z,41.11
2023-05-08T12:58:01.077Z,41.71
2023-05-08T13:00:39.093Z,40.61
2023-05-08T13:03:08.088Z,41.63
2023-05-08T13:05:36.918Z,41.25
2023-05-08T13:08:05.491Z,41.96
2023-05-08T13:10:47.599Z,40.64
2023-05-08T13:13:17.256Z,40.95
2023-05-08T13:15:45.584Z,40.71
2023-05-08T13:18:13.139Z,41.78
2023-05-08T13:20:40.753Z,41.11
2023-05-08T13:23:09.122Z,41.60
2023-05-08T13:25:38.171Z,41.73
2023-05-08T13:28:08.181Z,41.67
2023-05-08T13:30:35.965Z,42.38
2023-05-08T13:33:04.203Z,42.62
2023-05-08T13:35:32.943Z,43.14
2023-05-08T13:38:00.120Z,42.16
2023-05-08T13:40:27.607Z,40.78
2023-05-08T13:42:54.956Z,39.62
2023-05-08T13:45:23.587Z,40.20
2023-05-08T13:47:51.060Z,41.66
2023-05-08T13:50:19.392Z,41.43
2023-05-08T13:52:46.686Z,39.41
2023-05-08T13:55:14.941Z,37.95
2023-05-08T13:57:42.596Z,37.55
2023-05-08T14:00:11.332Z,38.11
2023-05-08T14:02:40.348Z,39.68
2023-05-08T14:05:08.617Z,40.51
2023-05-08T14:07:36.535Z,39.84
2023-05-08T14:10:04.913Z,39.40
2023-05-08T14:12:32.747Z,40.20
2023-05-08T14:14:59.851Z,39.12
2023-05-08T14:17:27.089Z,36.52
2023-05-08T14:19:55.859Z,37.82
2023-05-08T14:22:23.289Z,36.43
2023-05-08T14:24:50.509Z,37.30
2023-05-08T14:27:17.661Z,38.96
2023-05-08T14:29:45.103Z,39.24
2023-05-08T14:32:12.309Z,37.08
2023-05-08T14:34:39.394Z,38.26
2023-05-08T14:37:08.429Z,38.27
2023-05-08T14:39:35.493Z,37.60
2023-05-08T14:42:22.284Z,35.21
2023-05-08T14:44:50.831Z,34.26
2023-05-08T14:47:18.224Z,34.99
2023-05-08T14:49:45.621Z,34.38
2023-05-08T14:52:14.205Z,34.62
2023-05-08T14:54:41.621Z,35.17
2023-05-08T14:57:08.986Z,34.45
2023-05-08T14:59:36.231Z,35.11
2023-05-08T15:02:03.420Z,33.56
2023-05-08T15:04:30.689Z,34.76
2023-05-08T15:06:57.803Z,36.03
2023-05-08T15:09:26.439Z,36.11
2023-05-08T15:11:53.698Z,35.54
2023-05-08T15:14:20.746Z,34.10
2023-05-08T15:16:47.918Z,36.50
2023-05-08T15:19:15.176Z,39.14
2023-05-08T15:21:42.478Z,38.55
2023-05-08T15:24:09.796Z,37.45
2023-05-08T15:26:38.328Z,37.86
2023-05-08T15:29:05.397Z,37.72
2023-05-08T15:31:32.673Z,38.54
2023-05-08T15:33:59.909Z,38.02
2023-05-08T15:36:28.427Z,38.21
2023-05-08T15:38:55.673Z,37.57
2023-05-08T15:41:22.994Z,37.00
2023-05-08T15:43:51.749Z,36.79
2023-05-08T15:46:18.997Z,36.75
2023-05-08T15:48:46.232Z,37.23
2023-05-08T15:51:13.547Z,37.35
2023-05-08T15:53:40.832Z,37.24
2023-05-08T15:56:08.135Z,37.87
2023-05-08T15:58:35.510Z,38.15
2023-05-08T16:01:04.163Z,37.84
2023-05-08T16:03:31.791Z,37.60
2023-05-08T16:05:59.242Z,36.59
2023-05-08T16:08:26.750Z,36.46
2023-05-08T16:10:57.476Z,36.60
2023-05-08T16:13:24.622Z,38.12
2023-05-08T16:15:52.291Z,37.17
2023-05-08T16:18:21.103Z,37.76
2023-05-08T16:20:48.307Z,38.50
2023-05-08T16:23:15.520Z,38.63
2023-05-08T16:25:42.632Z,37.43
2023-05-08T16:28:09.734Z,36.75
2023-05-08T16:30:36.970Z,36.73
2023-05-08T16:33:04.551Z,36.71
2023-05-08T16:35:33.222Z,38.86
2023-05-08T16:38:00.643Z,37.94
2023-05-08T16:40:27.770Z,37.07
2023-05-08T16:42:55.019Z,37.22
2023-05-08T16:45:22.478Z,36.94
2023-05-08T16:47:49.657Z,38.05
2023-05-08T16:50:16.817Z,38.17
2023-05-08T16:52:45.413Z,38.55
2023-05-08T16:55:13.125Z,38.27
2023-05-08T16:57:40.575Z,38.45
2023-05-08T17:00:08.952Z,38.51
2023-05-08T17:02:36.310Z,38.60
2023-05-08T17:05:03.880Z,41.14
2023-05-08T17:07:31.194Z,38.85
2023-05-08T17:09:59.895Z,38.77
2023-05-08T17:12:27.089Z,39.85
2023-05-08T17:14:54.207Z,37.35
2023-05-08T17:17:21.349Z,38.82
2023-05-08T17:19:48.761Z,39.00
2023-05-08T17:22:16.258Z,39.08
2023-05-08T17:24:43.398Z,37.95
2023-05-08T17:27:12.117Z,40.02
2023-05-08T17:29:39.520Z,39.31
2023-05-08T17:32:06.766Z,37.93
2023-05-08T17:34:34.161Z,40.29
2023-05-08T17:37:01.501Z,40.20
2023-05-08T17:39:28.759Z,39.00
2023-05-08T17:41:56.142Z,39.12
2023-05-08T17:44:24.904Z,39.66
2023-05-08T17:46:52.142Z,36.65
2023-05-08T17:49:21.008Z,35.67
2023-05-08T17:51:48.860Z,36.58
2023-05-08T17:54:25.525Z,37.06
2023-05-08T17:56:52.701Z,36.36
2023-05-08T17:59:20.001Z,36.75
2023-05-08T18:01:48.639Z,37.19
2023-05-08T18:04:15.785Z,36.67
2023-05-08T18:06:43.333Z,37.67
2023-05-08T18:09:10.504Z,37.15
2023-05-08T18:11:37.847Z,37.25
2023-05-08T18:14:05.117Z,37.05
2023-05-08T18:16:33.460Z,37.94
2023-05-08T18:19:02.168Z,37.66
2023-05-08T18:21:30.029Z,37.89
2023-05-08T18:23:57.606Z,37.86
2023-05-08T18:26:25.224Z,38.05
2023-05-08T18:28:52.789Z,38.17
2023-05-08T18:31:20.052Z,38.04
2023-05-08T18:33:47.220Z,38.72
2023-05-08T18:36:15.940Z,38.86
2023-05-08T18:38:43.587Z,38.86
2023-05-08T18:41:10.905Z,38.77
2023-05-08T18:43:38.124Z,38.78
2023-05-08T18:46:09.884Z,38.72
2023-05-08T18:48:39.907Z,39.24
2023-05-08T18:51:07.018Z,39.33
2023-05-08T18:53:38.006Z,39.25
2023-05-08T18:56:06.502Z,39.17
2023-05-08T18:58:33.612Z,39.80
2023-05-08T19:01:00.708Z,40.27
2023-05-08T19:03:28.536Z,40.13
2023-05-08T19:05:55.960Z,39.97
2023-05-08T19:08:23.204Z,40.19
2023-05-08T19:10:51.929Z,40.32
2023-05-08T19:13:19.401Z,40.20
2023-05-08T19:15:46.998Z,40.48
2023-05-08T19:18:14.240Z,40.46
2023-05-08T19:20:41.761Z,40.49
2023-05-08T19:23:09.406Z,41.04
2023-05-08T19:25:36.889Z,40.61
2023-05-08T19:28:06.002Z,41.25
2023-05-08T19:30:33.037Z,40.94
2023-05-08T19:33:00.565Z,41.43
2023-05-08T19:35:27.768Z,41.61
2023-05-08T19:37:55.019Z,41.49
2023-05-08T19:40:22.259Z,41.67
2023-05-08T19:42:49.761Z,42.50
2023-05-08T19:45:18.369Z,42.31
2023-05-08T19:47:48.009Z,42.21
2023-05-08T19:50:15.513Z,41.87
2023-05-08T19:52:42.820Z,42.05
2023-05-08T19:55:10.394Z,42.75
2023-05-08T19:57:37.539Z,43.09
2023-05-08T20:00:06.268Z,42.52
2023-05-08T20:02:35.155Z,42.44
2023-05-08T20:07:32.661Z,41.99
2023-05-08T20:09:59.843Z,41.37
2023-05-08T20:12:27.158Z,41.06
2023-05-08T20:14:54.991Z,40.62
2023-05-08T20:17:22.392Z,40.08
2023-05-08T20:19:51.182Z,39.93
2023-05-08T20:22:18.279Z,39.69
2023-05-08T20:24:46.157Z,39.23
2023-05-08T20:27:13.485Z,39.26
2023-05-08T20:29:40.564Z,39.54
2023-05-08T20:32:08.008Z,39.10
2023-05-08T20:34:35.403Z,39.05
2023-05-08T20:37:04.052Z,39.55
2023-05-08T20:39:31.378Z,38.83
2023-05-08T20:41:58.479Z,38.25
2023-05-08T20:44:25.643Z,38.30
2023-05-08T20:46:53.279Z,38.23
2023-05-08T20:49:21.619Z,38.48
2023-05-08T20:51:50.450Z,37.68
2023-05-08T20:54:19.077Z,37.99
2023-05-08T20:56:46.238Z,38.13
2023-05-08T20:59:13.472Z,37.88
2023-05-08T21:01:40.590Z,37.37
2023-05-08T21:04:07.887Z,37.32
2023-05-08T21:06:34.999Z,38.05
2023-05-08T21:09:03.281Z,37.83
2023-05-08T21:11:32.618Z,37.84
2023-05-08T21:13:59.822Z,37.67
2023-05-08T21:16:27.280Z,37.81
2023-05-08T21:18:56.050Z,37.96
2023-05-08T21:21:25.296Z,38.16
2023-05-08T21:23:52.674Z,37.89
2023-05-08T21:26:19.894Z,38.11
2023-05-08T21:28:48.488Z,38.09
2023-05-08T21:31:15.695Z,37.89
2023-05-08T21:33:42.864Z,37.77
2023-05-08T21:36:09.964Z,38.63
2023-05-08T21:38:37.122Z,38.72
2023-05-08T21:41:07.623Z,38.95
2023-05-08T21:43:34.829Z,38.82
2023-05-08T21:46:04.190Z,39.01
2023-05-08T21:48:31.374Z,39.47
2023-05-08T21:50:59.056Z,39.46
2023-05-08T21:53:26.304Z,39.91
2023-05-08T21:55:53.531Z,40.33
2023-05-08T21:58:20.646Z,39.71
2023-05-08T22:00:47.961Z,39.79
2023-05-08T22:03:16.696Z,40.39
2023-05-08T22:05:43.967Z,40.27
2023-05-08T22:08:11.107Z,40.28
2023-05-08T22:10:38.340Z,40.10
2023-05-08T22:13:05.504Z,40.16
2023-05-08T22:15:32.824Z,40.21
2023-05-08T22:18:00.347Z,40.30
2023-05-08T22:20:28.981Z,40.47
2023-05-08T22:22:56.153Z,40.36
2023-05-08T22:25:23.372Z,40.84
2023-05-08T22:27:50.645Z,40.71
2023-05-08T22:30:17.801Z,41.48
2023-05-08T22:32:53.379Z,41.04
2023-05-08T22:35:23.013Z,40.72
2023-05-08T22:37:52.698Z,41.09
2023-05-08T22:40:20.906Z,41.21
2023-05-08T22:42:50.522Z,40.29
2023-05-08T22:45:18.325Z,40.45
2023-05-08T22:47:46.060Z,40.30
2023-05-08T22:50:13.376Z,40.52
2023-05-08T22:52:40.583Z,40.46
2023-05-08T22:55:10.168Z,40.46
2023-05-08T22:57:37.268Z,40.46
2023-05-08T23:00:05.985Z,40.57
2023-05-08T23:02:33.741Z,40.23
2023-05-08T23:05:01.383Z,41.00
2023-05-08T23:07:29.429Z,40.24
2023-05-08T23:09:56.566Z,40.55
2023-05-08T23:12:25.226Z,51.25
2023-05-08T23:14:52.399Z,51.03
2023-05-08T23:17:19.665Z,45.62
2023-05-08T23:19:46.779Z,45.47
2023-05-08T23:22:13.934Z,47.95
2023-05-08T23:24:40.976Z,46.60
2023-05-08T23:27:08.168Z,44.42
2023-05-08T23:29:36.818Z,45.77
2023-05-08T23:32:04.014Z,42.79
2023-05-08T23:34:31.129Z,42.95
2023-05-08T23:36:58.382Z,44.00
2023-05-08T23:39:25.483Z,45.29
2023-05-08T23:41:52.615Z,42.05
2023-05-08T23:44:19.762Z,42.22
2023-05-08T23:46:48.268Z,42.43
2023-05-08T23:49:15.611Z,42.13
2023-05-08T23:51:42.720Z,43.03
2023-05-08T23:54:09.942Z,43.42
2023-05-08T23:56:37.033Z,43.26
2023-05-08T23:59:04.367Z,43.32
